Innellan, United Kingdom
Current Conditions -  °F | °C
As of 9:20 PM on Friday 19 Dec 2014 (Local Time) from EGPF Reporting Station
Light Rain Light Rain  
Wind Chill: 34°   Ceiling: 2200
Heat Index: 43°   Visibility: 5mi
Dew Point: 37°   Wind: 22mph
Humidity: 81%   Direction: 260°W
Pressure: 29.83"   Gusts: NA
Location:  55.89°N, 4.96°W
Report Text: EGPF 192120Z AUTO 26019KT 8000 -RA FEW009/// BKN022/// //////TCU 06/03 Q1010 RERA
Loading
Personal Weather Stations






























Interactive Weather Map New forecast layout! Learn more

10-Day Weather Forecast

Advertisements
Track Severe Weather on mobile